Time;durP1;ratioP1;P1;durP2;ratioP2;P2;SDS_P1;SDS_P2;PMS_P1;PMS_P2;Temp;Humidity;BMP_temperature;BMP_pressure;BME280_temperature;BME280_humidity;BME280_pressure;Samples;Min_cycle;Max_cycle;Signal;HPM_P1;HPM_P2
2021/04/30 00:01:40;;;;;;;1.00;0.50;;;7.70;99.90;;;;;;5069552;28;20189;-84
2021/04/30 00:04:07;;;;;;;0.17;0.17;;;7.70;99.90;;;;;;5075800;28;20650;-84
2021/04/30 00:06:32;;;;;;;0.13;0.13;;;7.70;99.90;;;;;;5066022;28;20183;-83
2021/04/30 00:08:58;;;;;;;0.50;0.50;;;7.60;99.90;;;;;;5071022;28;20190;-85
2021/04/30 00:11:24;;;;;;;0.20;0.20;;;7.50;99.90;;;;;;5056445;28;20217;-85
2021/04/30 00:13:49;;;;;;;0.30;0.30;;;7.50;99.90;;;;;;5057209;28;20671;-84
2021/04/30 00:16:15;;;;;;;0.87;0.40;;;7.60;99.90;;;;;;5068643;28;20172;-84
2021/04/30 00:18:41;;;;;;;0.23;0.23;;;7.40;99.90;;;;;;5069005;28;20178;-85
2021/04/30 00:21:06;;;;;;;0.57;0.33;;;7.30;99.90;;;;;;5077050;28;20231;-85
2021/04/30 00:23:33;;;;;;;0.50;0.50;;;7.10;99.90;;;;;;5071710;28;20182;-85
2021/04/30 00:26:02;;;;;;;0.20;0.20;;;7.00;99.90;;;;;;5057306;28;20195;-85
2021/04/30 00:28:28;;;;;;;1.03;1.03;;;7.00;99.90;;;;;;5075883;28;20220;-84
2021/04/30 00:30:54;;;;;;;0.20;0.20;;;7.10;99.90;;;;;;5065111;28;20231;-84
2021/04/30 00:33:21;;;;;;;0.67;0.37;;;7.00;99.90;;;;;;5069509;28;20177;-84
2021/04/30 00:35:51;;;;;;;0.43;0.37;;;7.10;99.90;;;;;;5081666;28;20177;-84
2021/04/30 00:38:18;;;;;;;0.10;0.10;;;7.10;99.90;;;;;;5088218;28;20532;-84
2021/04/30 00:40:45;;;;;;;1.03;0.70;;;7.10;99.90;;;;;;5087671;28;20192;-84
2021/04/30 00:43:11;;;;;;;0.30;0.30;;;7.00;99.90;;;;;;5092837;28;20202;-85
2021/04/30 00:45:36;;;;;;;0.93;0.40;;;6.90;99.90;;;;;;5076366;28;20185;-84
2021/04/30 00:48:02;;;;;;;0.30;0.20;;;6.80;99.90;;;;;;5076748;28;20194;-84
2021/04/30 00:50:29;;;;;;;0.43;0.43;;;6.80;99.90;;;;;;5063684;28;20208;-83
2021/04/30 00:52:55;;;;;;;0.40;0.40;;;6.80;99.90;;;;;;5069441;28;20329;-84
2021/04/30 00:55:21;;;;;;;0.20;0.20;;;6.80;99.90;;;;;;5056297;28;20180;-84
2021/04/30 00:57:56;;;;;;;0.57;0.50;;;6.70;99.90;;;;;;5075977;28;20621;-85
2021/04/30 01:00:23;;;;;;;0.20;0.20;;;6.70;99.90;;;;;;5082227;28;20214;-84
2021/04/30 01:02:49;;;;;;;1.90;0.20;;;6.60;99.90;;;;;;5065985;28;20178;-85
2021/04/30 01:05:16;;;;;;;0.30;0.30;;;6.70;99.90;;;;;;5080230;28;20328;-84
2021/04/30 01:07:42;;;;;;;1.27;0.60;;;6.80;99.90;;;;;;5068111;28;20188;-84
2021/04/30 01:10:08;;;;;;;0.30;0.30;;;6.90;99.90;;;;;;5073609;28;20696;-84
2021/04/30 01:12:34;;;;;;;0.67;0.30;;;6.90;99.90;;;;;;5062718;28;20188;-84
2021/04/30 01:15:00;;;;;;;0.30;0.30;;;7.00;99.90;;;;;;5074787;28;20382;-84
2021/04/30 01:17:27;;;;;;;0.20;0.20;;;7.00;99.90;;;;;;5085385;28;20278;-84
2021/04/30 01:19:55;;;;;;;0.37;0.37;;;6.90;99.90;;;;;;5090497;28;20192;-83
2021/04/30 01:22:56;;;;;;;0.60;0.40;;;6.90;99.90;;;;;;5087960;28;20180;-84
2021/04/30 01:25:27;;;;;;;0.33;0.30;;;6.90;99.90;;;;;;4986973;28;20192;-84
2021/04/30 01:27:54;;;;;;;0.27;0.27;;;6.80;99.90;;;;;;5056296;28;20776;-84
2021/04/30 01:30:23;;;;;;;0.30;0.30;;;6.70;99.90;;;;;;5073663;28;20218;-85
2021/04/30 01:32:49;;;;;;;0.30;0.30;;;6.80;99.90;;;;;;5090819;28;20204;-84
2021/04/30 01:35:35;;;;;;;1.80;0.33;;;6.70;99.90;;;;;;5064841;28;20641;-84
2021/04/30 01:38:02;;;;;;;0.50;0.50;;;6.60;99.90;;;;;;5073773;28;20267;-84
2021/04/30 01:40:31;;;;;;;0.40;0.40;;;6.50;99.90;;;;;;5081948;28;20209;-84
2021/04/30 01:43:04;;;;;;;0.67;0.30;;;6.50;99.90;;;;;;5090732;28;20214;-85
2021/04/30 01:45:34;;;;;;;0.57;0.40;;;6.40;99.90;;;;;;5077631;28;20177;-84
2021/04/30 01:48:01;;;;;;;0.40;0.40;;;6.30;99.90;;;;;;5057603;28;20184;-83
2021/04/30 01:50:27;;;;;;;1.07;1.03;;;6.30;99.90;;;;;;5088037;28;20212;-84
2021/04/30 01:52:52;;;;;;;0.17;0.17;;;6.20;99.90;;;;;;5060648;28;20534;-84
2021/04/30 01:55:18;;;;;;;0.37;0.37;;;6.20;99.90;;;;;;5095603;28;20180;-84
2021/04/30 01:57:47;;;;;;;0.40;0.33;;;6.10;99.90;;;;;;5066676;28;20346;-84
2021/04/30 02:00:19;;;;;;;0.23;0.23;;;6.10;99.90;;;;;;5072641;28;20306;-83
2021/04/30 02:02:46;;;;;;;0.23;0.23;;;6.20;99.90;;;;;;5064602;28;20259;-84
2021/04/30 02:05:12;;;;;;;0.20;0.20;;;6.20;99.90;;;;;;5065316;28;20173;-84
2021/04/30 02:07:38;;;;;;;1.03;0.30;;;6.20;99.90;;;;;;5065276;28;20273;-84
2021/04/30 02:10:09;;;;;;;0.37;0.37;;;6.20;99.90;;;;;;5073396;28;20246;-84
2021/04/30 02:12:34;;;;;;;0.50;0.40;;;6.20;99.90;;;;;;5088083;28;20603;-84
2021/04/30 02:15:00;;;;;;;0.30;0.30;;;6.10;99.90;;;;;;5066198;28;20184;-84
2021/04/30 02:17:30;;;;;;;0.47;0.47;;;6.10;99.90;;;;;;5071082;28;20179;-84
2021/04/30 02:19:55;;;;;;;0.40;0.40;;;6.00;99.90;;;;;;5094939;28;20173;-84
2021/04/30 02:22:21;;;;;;;1.40;0.80;;;5.90;99.90;;;;;;5080776;28;20177;-83
2021/04/30 02:24:47;;;;;;;0.13;0.13;;;6.00;99.90;;;;;;5070368;28;20172;-83
2021/04/30 02:27:20;;;;;;;0.10;0.10;;;6.00;99.90;;;;;;5072759;28;20664;-84
2021/04/30 02:29:46;;;;;;;0.57;0.53;;;6.00;99.90;;;;;;5081257;28;20259;-83
2021/04/30 02:32:11;;;;;;;0.17;0.17;;;6.10;99.90;;;;;;5080388;28;20231;-84
2021/04/30 02:34:37;;;;;;;0.50;0.50;;;6.10;99.90;;;;;;5080153;28;20192;-84
2021/04/30 02:37:02;;;;;;;0.60;0.53;;;6.10;99.90;;;;;;5068699;28;20194;-84
2021/04/30 02:39:28;;;;;;;0.30;0.30;;;6.10;99.90;;;;;;5063108;28;20177;-83
2021/04/30 02:41:54;;;;;;;0.10;0.10;;;6.20;99.90;;;;;;5073862;28;20187;-83
2021/04/30 02:44:19;;;;;;;0.93;0.80;;;6.30;99.90;;;;;;5067955;28;20184;-84
2021/04/30 02:46:45;;;;;;;0.97;0.30;;;6.20;99.90;;;;;;5090005;28;20177;-85
2021/04/30 02:49:14;;;;;;;0.33;0.33;;;6.20;99.90;;;;;;5062561;28;20240;-83
2021/04/30 02:51:41;;;;;;;1.50;0.30;;;6.20;99.90;;;;;;5079482;28;20299;-83
2021/04/30 02:54:07;;;;;;;0.30;0.30;;;6.20;99.90;;;;;;5067944;28;20175;-83
2021/04/30 02:56:35;;;;;;;0.50;0.50;;;6.20;99.90;;;;;;5070756;28;20334;-83
2021/04/30 02:59:03;;;;;;;0.50;0.50;;;6.10;99.90;;;;;;5092473;28;20180;-84
2021/04/30 03:01:29;;;;;;;0.20;0.20;;;6.10;99.90;;;;;;5087731;28;20200;-85
2021/04/30 03:03:54;;;;;;;0.47;0.47;;;6.10;99.90;;;;;;5080180;28;20181;-84
2021/04/30 03:06:20;;;;;;;0.30;0.30;;;6.10;99.90;;;;;;5069230;28;20181;-84
2021/04/30 03:08:51;;;;;;;0.43;0.40;;;6.10;99.90;;;;;;5075010;28;20243;-85
2021/04/30 03:11:16;;;;;;;0.50;0.40;;;6.10;99.90;;;;;;5087300;28;20231;-84
2021/04/30 03:13:42;;;;;;;0.23;0.23;;;6.00;99.90;;;;;;5093514;28;20182;-83
2021/04/30 03:16:08;;;;;;;1.23;0.50;;;6.00;99.90;;;;;;5088242;28;20528;-85
2021/04/30 03:18:33;;;;;;;0.63;0.63;;;5.90;99.90;;;;;;5079025;28;20187;-84
2021/04/30 03:20:59;;;;;;;0.20;0.20;;;5.90;99.90;;;;;;5058796;28;20201;-84
2021/04/30 03:23:24;;;;;;;1.83;0.60;;;5.90;99.90;;;;;;5066499;28;20239;-84
2021/04/30 03:25:50;;;;;;;0.30;0.30;;;5.90;99.90;;;;;;5087814;28;20215;-84
2021/04/30 03:28:15;;;;;;;0.27;0.27;;;5.90;99.90;;;;;;5061014;28;20215;-84
2021/04/30 03:30:41;;;;;;;0.40;0.40;;;5.90;99.90;;;;;;5057794;28;20210;-84
2021/04/30 03:33:07;;;;;;;0.60;0.50;;;5.90;99.90;;;;;;5065045;28;20187;-84
2021/04/30 03:35:32;;;;;;;0.43;0.43;;;5.90;99.90;;;;;;5074340;28;20219;-85
2021/04/30 03:38:00;;;;;;;1.50;1.07;;;6.00;99.90;;;;;;5064607;28;20193;-84
2021/04/30 03:40:26;;;;;;;2.20;0.70;;;5.90;99.90;;;;;;5078298;28;20578;-83
2021/04/30 03:42:51;;;;;;;0.20;0.20;;;5.90;99.90;;;;;;5064083;28;20183;-85
2021/04/30 03:45:17;;;;;;;0.37;0.37;;;5.80;99.90;;;;;;5068070;28;20196;-84
2021/04/30 03:47:42;;;;;;;2.60;0.27;;;5.80;99.90;;;;;;5061303;28;20197;-85
2021/04/30 03:50:08;;;;;;;1.10;0.93;;;5.80;99.90;;;;;;5067366;28;20233;-84
2021/04/30 03:52:35;;;;;;;1.10;0.33;;;5.80;99.90;;;;;;5073318;28;20196;-84
2021/04/30 03:55:00;;;;;;;0.40;0.40;;;5.90;99.90;;;;;;5067382;28;20185;-84
2021/04/30 03:57:26;;;;;;;0.60;0.60;;;5.90;99.90;;;;;;5081209;28;20179;-84
2021/04/30 03:59:53;;;;;;;0.83;0.83;;;5.90;99.90;;;;;;5067113;28;20268;-84
2021/04/30 04:02:18;;;;;;;0.87;0.67;;;6.00;99.90;;;;;;5063327;28;20183;-83
2021/04/30 04:04:44;;;;;;;0.40;0.40;;;6.00;99.90;;;;;;5067447;28;20192;-84
2021/04/30 04:07:09;;;;;;;0.67;0.67;;;5.90;99.90;;;;;;5056780;28;20371;-85
2021/04/30 04:09:35;;;;;;;0.60;0.60;;;5.90;99.90;;;;;;5084523;28;20196;-84
2021/04/30 04:12:00;;;;;;;0.63;0.40;;;5.80;99.90;;;;;;5062585;28;20208;-84
2021/04/30 04:14:26;;;;;;;0.90;0.90;;;5.70;99.90;;;;;;5074459;28;20632;-84
2021/04/30 04:16:51;;;;;;;0.67;0.40;;;5.60;99.90;;;;;;5070331;28;20563;-84
2021/04/30 04:19:17;;;;;;;0.20;0.20;;;5.50;99.90;;;;;;5094990;28;20184;-84
2021/04/30 04:21:43;;;;;;;0.10;0.10;;;5.50;99.90;;;;;;5071039;28;20669;-85
2021/04/30 04:24:09;;;;;;;0.60;0.60;;;5.50;99.90;;;;;;5073653;28;20183;-84
2021/04/30 04:26:35;;;;;;;0.57;0.57;;;5.70;99.90;;;;;;5072943;28;20650;-84
2021/04/30 04:29:01;;;;;;;0.20;0.20;;;5.70;99.90;;;;;;5064896;28;20180;-84
2021/04/30 04:31:26;;;;;;;1.43;0.77;;;5.70;99.90;;;;;;5075198;28;20697;-85
2021/04/30 04:33:52;;;;;;;0.10;0.10;;;5.60;99.90;;;;;;5067637;28;20178;-84
2021/04/30 04:36:17;;;;;;;0.47;0.40;;;5.70;99.90;;;;;;5082529;28;20602;-84
2021/04/30 04:38:43;;;;;;;8.23;0.50;;;5.60;99.90;;;;;;5070751;28;20168;-84
2021/04/30 04:41:09;;;;;;;0.17;0.17;;;5.50;99.90;;;;;;5061131;28;20292;-84
2021/04/30 04:43:34;;;;;;;0.57;0.57;;;5.10;99.90;;;;;;5085772;28;20214;-85
2021/04/30 04:46:00;;;;;;;0.30;0.30;;;5.00;99.90;;;;;;5072229;28;20584;-84
2021/04/30 04:48:26;;;;;;;0.33;0.33;;;5.10;99.90;;;;;;5066983;28;20587;-85
2021/04/30 04:50:51;;;;;;;0.33;0.33;;;5.30;99.90;;;;;;5058014;28;20213;-85
2021/04/30 04:53:17;;;;;;;0.10;0.10;;;5.40;99.90;;;;;;5066465;28;20191;-84
2021/04/30 04:55:43;;;;;;;1.33;0.63;;;5.60;99.90;;;;;;5089672;28;20184;-83
2021/04/30 04:58:08;;;;;;;0.13;0.10;;;5.80;99.90;;;;;;5065353;28;20652;-82
2021/04/30 05:00:34;;;;;;;0.77;0.77;;;5.90;99.90;;;;;;5065959;28;20580;-81
2021/04/30 05:02:59;;;;;;;0.33;0.33;;;5.80;99.90;;;;;;5065378;28;20270;-82
2021/04/30 05:05:27;;;;;;;0.23;0.23;;;5.80;99.90;;;;;;5083714;28;20184;-83
2021/04/30 05:07:53;;;;;;;0.70;0.60;;;5.80;99.90;;;;;;5065998;28;20191;-81
2021/04/30 05:10:19;;;;;;;0.30;0.30;;;5.70;99.90;;;;;;5087420;28;20244;-84
2021/04/30 05:12:46;;;;;;;0.57;0.57;;;5.60;99.90;;;;;;5055133;28;20221;-84
2021/04/30 05:15:13;;;;;;;0.80;0.50;;;5.50;99.90;;;;;;5089152;28;20176;-84
2021/04/30 05:17:38;;;;;;;2.07;0.90;;;5.70;99.90;;;;;;5072218;28;20177;-84
2021/04/30 05:20:04;;;;;;;0.70;0.43;;;5.90;99.90;;;;;;5064163;28;20214;-84
2021/04/30 05:22:30;;;;;;;1.23;0.60;;;5.80;99.90;;;;;;5077845;28;20202;-84
2021/04/30 05:24:56;;;;;;;0.70;0.60;;;5.90;99.90;;;;;;5058477;28;20181;-84
2021/04/30 05:27:21;;;;;;;0.83;0.77;;;6.00;99.90;;;;;;5097767;28;20181;-85
2021/04/30 05:29:48;;;;;;;1.57;1.47;;;6.00;99.90;;;;;;5070754;28;20229;-85
2021/04/30 05:32:13;;;;;;;0.37;0.37;;;6.20;99.90;;;;;;5079554;28;20209;-85
2021/04/30 05:34:40;;;;;;;0.57;0.40;;;6.30;99.90;;;;;;5080977;28;20184;-85
2021/04/30 05:37:06;;;;;;;0.30;0.30;;;6.30;99.90;;;;;;5091932;28;20226;-85
2021/04/30 05:39:33;;;;;;;1.63;0.60;;;6.60;99.90;;;;;;5057994;28;20178;-85
2021/04/30 05:41:59;;;;;;;11.93;2.00;;;6.80;99.90;;;;;;5067303;28;20669;-84
2021/04/30 05:44:25;;;;;;;0.47;0.47;;;6.70;99.90;;;;;;5065265;28;20195;-85
2021/04/30 05:46:50;;;;;;;0.77;0.77;;;6.60;99.90;;;;;;5071326;28;20177;-85
2021/04/30 05:49:16;;;;;;;0.67;0.67;;;6.80;99.90;;;;;;5060143;28;20231;-85
2021/04/30 05:51:41;;;;;;;0.73;0.73;;;6.70;99.90;;;;;;5089020;28;20216;-85
2021/04/30 05:54:07;;;;;;;1.57;1.20;;;6.70;99.90;;;;;;5087444;28;20206;-86
2021/04/30 05:56:33;;;;;;;0.50;0.50;;;6.60;99.90;;;;;;5108615;28;20190;-85
2021/04/30 05:58:59;;;;;;;0.93;0.70;;;6.70;99.90;;;;;;5110652;28;20176;-85
2021/04/30 06:01:25;;;;;;;0.67;0.67;;;7.00;99.90;;;;;;5086047;28;20227;-85
2021/04/30 06:03:50;;;;;;;0.80;0.50;;;6.90;99.90;;;;;;5065148;28;21822;-84
2021/04/30 06:06:16;;;;;;;1.00;0.90;;;7.00;99.90;;;;;;5093775;28;20626;-85
2021/04/30 06:08:42;;;;;;;1.83;1.10;;;6.70;99.90;;;;;;5084011;28;20188;-85
2021/04/30 06:11:07;;;;;;;0.90;0.90;;;6.90;99.90;;;;;;5083273;28;20204;-85
2021/04/30 06:13:33;;;;;;;2.53;1.10;;;7.10;99.90;;;;;;5065314;28;20182;-84
2021/04/30 06:15:58;;;;;;;1.00;0.93;;;7.40;99.90;;;;;;5060163;28;20191;-84
2021/04/30 06:18:24;;;;;;;1.50;1.10;;;7.40;99.90;;;;;;5100710;28;20179;-85
2021/04/30 06:20:50;;;;;;;1.07;0.63;;;7.50;99.90;;;;;;5111190;28;20213;-85
2021/04/30 06:23:15;;;;;;;1.40;1.33;;;7.90;99.90;;;;;;5081284;28;20233;-85
2021/04/30 06:25:41;;;;;;;3.20;1.93;;;7.60;99.90;;;;;;5089125;28;20702;-84
2021/04/30 06:28:06;;;;;;;0.60;0.60;;;8.00;99.90;;;;;;5079715;28;20200;-85
2021/04/30 06:30:32;;;;;;;0.60;0.60;;;8.10;99.90;;;;;;5076512;28;20259;-88
2021/04/30 06:32:57;;;;;;;0.50;0.50;;;8.20;99.90;;;;;;5066631;28;20251;-86
2021/04/30 06:35:23;;;;;;;0.53;0.47;;;8.10;99.90;;;;;;5080441;28;20195;-84
2021/04/30 06:37:49;;;;;;;0.87;0.30;;;8.40;99.90;;;;;;5089514;28;20264;-83
2021/04/30 06:40:14;;;;;;;0.87;0.77;;;8.30;99.90;;;;;;5057652;28;20206;-84
2021/04/30 06:42:46;;;;;;;0.97;0.87;;;8.60;99.90;;;;;;5063807;28;20211;-82
2021/04/30 06:45:12;;;;;;;0.77;0.67;;;8.40;99.90;;;;;;5086500;28;20236;-83
2021/04/30 06:47:38;;;;;;;0.40;0.40;;;8.70;99.90;;;;;;5065511;28;20187;-83
2021/04/30 06:50:04;;;;;;;1.03;0.97;;;9.00;99.90;;;;;;5073427;28;20193;-84
2021/04/30 06:52:29;;;;;;;0.50;0.40;;;8.80;99.90;;;;;;5086499;28;20578;-84
2021/04/30 06:54:55;;;;;;;0.70;0.60;;;8.40;99.90;;;;;;5073987;28;20651;-84
2021/04/30 06:57:20;;;;;;;0.70;0.67;;;8.60;99.90;;;;;;5068132;28;20248;-82
2021/04/30 07:00:07;;;;;;;0.93;0.83;;;8.50;99.90;;;;;;5056877;28;20188;-84
2021/04/30 07:02:32;;;;;;;2.00;0.80;;;8.20;99.90;;;;;;5069865;28;20191;-83
2021/04/30 07:05:05;;;;;;;0.97;0.87;;;8.50;99.90;;;;;;5057466;28;20204;-83
2021/04/30 07:07:31;;;;;;;5.27;0.93;;;8.20;99.90;;;;;;5070362;28;20187;-84
2021/04/30 07:09:57;;;;;;;0.90;0.73;;;8.00;99.90;;;;;;5059582;28;20190;-83
2021/04/30 07:12:22;;;;;;;0.33;0.33;;;8.10;99.90;;;;;;5069838;28;20554;-83
2021/04/30 07:14:48;;;;;;;0.60;0.60;;;8.20;99.90;;;;;;5056631;28;20560;-84
2021/04/30 07:17:13;;;;;;;1.63;1.03;;;8.30;99.90;;;;;;5061518;28;20654;-82
2021/04/30 07:19:39;;;;;;;0.67;0.67;;;8.00;99.90;;;;;;5069029;28;20176;-82
2021/04/30 07:22:09;;;;;;;0.67;0.50;;;7.90;99.90;;;;;;5067953;28;20208;-82
2021/04/30 07:24:38;;;;;;;0.40;0.40;;;8.10;99.90;;;;;;5065158;28;20260;-83
2021/04/30 07:27:04;;;;;;;0.53;0.53;;;8.40;99.90;;;;;;5064207;28;20189;-82
2021/04/30 07:29:30;;;;;;;1.67;0.77;;;8.50;99.90;;;;;;5081620;28;20183;-82
2021/04/30 07:31:56;;;;;;;0.70;0.70;;;8.60;99.90;;;;;;5087399;28;20239;-83
2021/04/30 07:34:22;;;;;;;1.00;0.90;;;8.80;99.90;;;;;;5081641;28;20194;-84
2021/04/30 07:36:48;;;;;;;0.20;0.20;;;9.20;99.90;;;;;;5095318;28;20695;-83
2021/04/30 07:39:14;;;;;;;0.70;0.60;;;9.30;99.90;;;;;;5064371;28;20182;-83
2021/04/30 07:41:39;;;;;;;0.53;0.53;;;9.50;99.90;;;;;;5087248;28;20210;-83
2021/04/30 07:44:05;;;;;;;1.47;0.50;;;9.80;99.90;;;;;;5070401;28;20204;-82
2021/04/30 07:46:30;;;;;;;2.27;1.00;;;9.80;99.90;;;;;;5058116;28;20205;-82
2021/04/30 07:48:56;;;;;;;0.40;0.40;;;9.90;99.90;;;;;;5064713;28;20185;-83
2021/04/30 07:51:21;;;;;;;0.53;0.33;;;10.00;99.90;;;;;;5081023;28;20216;-82
2021/04/30 07:53:47;;;;;;;1.33;0.77;;;9.90;99.90;;;;;;5082061;28;20264;-83
2021/04/30 07:56:13;;;;;;;0.83;0.30;;;10.10;99.90;;;;;;5080179;28;20171;-87
2021/04/30 07:58:38;;;;;;;0.50;0.40;;;10.50;99.90;;;;;;5076761;28;20184;-82
2021/04/30 08:01:04;;;;;;;0.73;0.67;;;10.50;99.90;;;;;;5074587;28;20235;-81
2021/04/30 08:03:30;;;;;;;1.30;1.20;;;10.40;99.90;;;;;;5084544;28;20237;-82
2021/04/30 08:05:56;;;;;;;0.63;0.40;;;10.20;99.90;;;;;;5087910;28;20191;-83
2021/04/30 08:08:22;;;;;;;0.13;0.13;;;10.50;99.90;;;;;;5065920;28;20594;-83
2021/04/30 08:10:48;;;;;;;0.20;0.20;;;10.70;99.90;;;;;;5061903;28;20244;-82
2021/04/30 08:13:18;;;;;;;0.80;0.80;;;10.40;99.90;;;;;;5064623;28;20190;-83
2021/04/30 08:15:45;;;;;;;1.53;1.00;;;10.50;99.90;;;;;;5063207;28;20177;-84
2021/04/30 08:18:10;;;;;;;0.50;0.50;;;10.60;99.90;;;;;;5073401;28;20190;-83
2021/04/30 08:20:36;;;;;;;0.43;0.43;;;10.50;99.90;;;;;;5074696;28;20569;-84
2021/04/30 08:23:03;;;;;;;1.17;0.77;;;10.90;99.90;;;;;;5062175;28;20193;-84
2021/04/30 08:25:29;;;;;;;1.17;0.90;;;10.60;99.90;;;;;;5087613;28;20343;-84
2021/04/30 08:27:55;;;;;;;0.93;0.60;;;10.80;99.90;;;;;;5063305;28;20196;-82
2021/04/30 08:30:21;;;;;;;0.90;0.90;;;10.60;99.90;;;;;;5063579;28;20219;-82
2021/04/30 08:32:46;;;;;;;0.70;0.53;;;10.50;99.90;;;;;;5064828;28;20623;-83
2021/04/30 08:35:12;;;;;;;7.93;0.60;;;10.30;99.90;;;;;;5064963;28;20189;-82
2021/04/30 08:37:38;;;;;;;0.53;0.40;;;10.50;99.90;;;;;;5065042;28;20185;-81
2021/04/30 08:40:05;;;;;;;0.57;0.53;;;10.80;99.90;;;;;;5093792;28;20240;-87
2021/04/30 08:42:32;;;;;;;0.37;0.37;;;11.00;99.90;;;;;;5079401;28;20235;-82
2021/04/30 08:45:06;;;;;;;0.60;0.60;;;11.10;99.90;;;;;;5090980;28;20191;-82
2021/04/30 08:47:35;;;;;;;0.60;0.60;;;11.20;99.90;;;;;;5070721;28;20209;-82
2021/04/30 08:50:00;;;;;;;0.60;0.60;;;11.20;99.90;;;;;;5084072;28;20184;-82
2021/04/30 08:52:26;;;;;;;0.53;0.53;;;11.30;99.90;;;;;;5078526;28;20193;-82
2021/04/30 08:54:54;;;;;;;2.00;1.10;;;11.50;99.90;;;;;;5066777;28;20256;-81
2021/04/30 08:57:30;;;;;;;0.63;0.63;;;11.60;99.90;;;;;;5065946;28;20187;-83
2021/04/30 08:59:57;;;;;;;0.30;0.30;;;11.70;99.90;;;;;;5075434;28;20184;-82
2021/04/30 09:02:34;;;;;;;1.53;0.60;;;11.70;99.90;;;;;;5062843;28;20189;-84
2021/04/30 09:05:00;;;;;;;1.20;0.53;;;11.70;99.90;;;;;;5073233;28;20679;-82
2021/04/30 09:07:26;;;;;;;1.37;1.27;;;11.80;99.90;;;;;;5084381;28;20188;-83
2021/04/30 09:10:05;;;;;;;1.40;0.87;;;11.20;99.90;;;;;;5065619;28;20188;-82
2021/04/30 09:12:31;;;;;;;3.20;0.97;;;10.90;99.90;;;;;;5085302;28;20212;-84
2021/04/30 09:14:58;;;;;;;0.47;0.37;;;11.20;99.90;;;;;;5077798;28;20195;-84
2021/04/30 09:17:24;;;;;;;0.30;0.23;;;11.50;99.90;;;;;;5080475;28;20181;-82
2021/04/30 09:20:00;;;;;;;0.33;0.30;;;11.60;99.90;;;;;;5087736;28;20217;-83
2021/04/30 09:22:37;;;;;;;1.03;1.03;;;11.80;99.90;;;;;;5055113;28;20211;-84
2021/04/30 09:25:11;;;;;;;0.80;0.80;;;11.80;99.90;;;;;;5091671;28;20185;-82
2021/04/30 09:27:47;;;;;;;0.50;0.50;;;11.90;99.90;;;;;;5065621;28;20177;-83
2021/04/30 09:30:26;;;;;;;1.70;0.57;;;11.90;99.90;;;;;;5073366;28;20261;-82
2021/04/30 09:33:15;;;;;;;1.00;0.43;;;12.00;99.90;;;;;;5071578;28;20180;-84
2021/04/30 09:35:44;;;;;;;0.67;0.30;;;12.10;99.90;;;;;;5074336;28;20176;-83
2021/04/30 09:38:17;;;;;;;0.20;0.20;;;12.20;99.90;;;;;;5087681;28;20173;-84
2021/04/30 09:40:43;;;;;;;0.90;0.73;;;12.00;99.90;;;;;;5069765;28;20217;-82
2021/04/30 09:43:10;;;;;;;2.33;1.30;;;12.00;99.90;;;;;;5086863;28;20185;-83
2021/04/30 09:45:36;;;;;;;0.63;0.63;;;11.50;99.90;;;;;;5063649;28;20223;-83
2021/04/30 09:48:03;;;;;;;1.87;0.73;;;11.50;99.90;;;;;;5061224;28;20195;-83
2021/04/30 09:50:30;;;;;;;0.93;0.73;;;11.70;99.90;;;;;;5070834;28;20208;-83
2021/04/30 09:53:07;;;;;;;1.23;0.57;;;11.90;99.90;;;;;;5084336;28;20201;-82
2021/04/30 09:55:41;;;;;;;0.93;0.50;;;12.00;99.90;;;;;;5074729;28;20195;-84
2021/04/30 09:58:11;;;;;;;0.80;0.60;;;12.20;99.90;;;;;;5076583;28;20188;-82
2021/04/30 10:00:37;;;;;;;1.97;0.50;;;12.10;99.90;;;;;;5062224;28;20331;-82
2021/04/30 10:03:20;;;;;;;0.83;0.83;;;12.40;99.90;;;;;;5086000;28;20231;-87
2021/04/30 10:06:17;;;;;;;0.43;0.43;;;12.60;99.90;;;;;;5087580;28;20257;-83
2021/04/30 10:09:03;;;;;;;0.97;0.87;;;12.80;99.90;;;;;;5069159;28;20192;-83
2021/04/30 10:11:34;;;;;;;1.60;1.00;;;12.50;99.90;;;;;;5070017;28;20212;-83
2021/04/30 10:14:02;;;;;;;0.53;0.53;;;12.60;99.90;;;;;;5069503;28;20216;-83
2021/04/30 10:16:29;;;;;;;0.90;0.80;;;12.20;99.90;;;;;;5067807;28;20185;-82
2021/04/30 10:18:54;;;;;;;0.40;0.40;;;12.40;99.90;;;;;;5059241;28;20258;-82
2021/04/30 10:21:21;;;;;;;0.73;0.40;;;12.90;99.90;;;;;;5058581;28;20240;-82
2021/04/30 10:23:50;;;;;;;0.80;0.53;;;13.20;99.90;;;;;;5093631;28;20176;-82
2021/04/30 10:26:17;;;;;;;1.43;0.77;;;12.90;99.90;;;;;;5073570;28;20194;-84
2021/04/30 10:28:49;;;;;;;1.53;0.90;;;13.20;99.90;;;;;;5068859;28;20181;-83
2021/04/30 10:31:17;;;;;;;0.43;0.43;;;12.80;99.90;;;;;;5068756;28;20224;-83
2021/04/30 10:33:45;;;;;;;1.00;0.70;;;12.80;99.90;;;;;;5076197;28;20645;-82
2021/04/30 10:36:29;;;;;;;0.40;0.40;;;13.00;99.90;;;;;;5070863;28;20173;-82
2021/04/30 10:38:57;;;;;;;0.23;0.23;;;13.80;99.90;;;;;;5081067;28;20180;-83
2021/04/30 10:41:34;;;;;;;0.70;0.70;;;14.10;99.90;;;;;;5074251;28;20205;-83
2021/04/30 10:44:21;;;;;;;1.10;0.83;;;13.40;99.90;;;;;;5083391;28;20186;-83
2021/04/30 10:46:52;;;;;;;1.20;0.70;;;13.20;99.90;;;;;;5065864;28;20181;-85
2021/04/30 10:49:22;;;;;;;2.00;0.23;;;12.50;99.90;;;;;;5074884;28;20185;-85
2021/04/30 10:52:08;;;;;;;1.10;1.07;;;12.30;99.90;;;;;;5059366;28;20634;-85
2021/04/30 10:54:41;;;;;;;0.70;0.70;;;11.60;99.90;;;;;;5081774;28;20188;-84
2021/04/30 10:57:09;;;;;;;0.80;0.67;;;12.40;99.90;;;;;;5071021;28;20182;-88
2021/04/30 10:59:38;;;;;;;2.53;2.07;;;12.30;99.90;;;;;;5083727;28;20189;-84
2021/04/30 11:02:17;;;;;;;0.60;0.57;;;11.90;99.90;;;;;;5091079;28;20713;-83
2021/04/30 11:05:02;;;;;;;0.93;0.90;;;12.70;99.90;;;;;;5073950;28;20672;-85
2021/04/30 11:07:29;;;;;;;0.50;0.50;;;12.50;99.90;;;;;;5072451;28;20173;-83
2021/04/30 11:09:54;;;;;;;1.03;0.93;;;13.00;99.90;;;;;;5084333;28;20181;-83
2021/04/30 11:12:21;;;;;;;0.57;0.40;;;13.10;99.90;;;;;;5100574;28;20220;-83
2021/04/30 11:15:07;;;;;;;0.77;0.77;;;13.00;99.90;;;;;;5079410;28;20176;-84
2021/04/30 11:17:55;;;;;;;3.10;0.87;;;13.70;99.90;;;;;;5080057;28;20664;-84
2021/04/30 11:20:26;;;;;;;0.50;0.50;;;14.20;99.90;;;;;;5082920;28;20252;-83
2021/04/30 11:23:18;;;;;;;0.53;0.43;;;14.50;99.90;;;;;;5074588;28;20183;-84
2021/04/30 11:26:04;;;;;;;1.07;0.90;;;15.20;99.90;;;;;;5090076;28;20211;-84
2021/04/30 11:28:29;;;;;;;0.40;0.40;;;14.90;99.90;;;;;;5091223;28;20178;-84
2021/04/30 11:31:12;;;;;;;1.20;0.60;;;15.70;99.90;;;;;;5086970;28;20294;-85
2021/04/30 11:33:40;;;;;;;0.50;0.50;;;16.20;99.90;;;;;;5059160;28;20179;-83
2021/04/30 11:36:08;;;;;;;1.37;0.70;;;15.40;99.90;;;;;;5067647;28;20188;-83
2021/04/30 11:38:38;;;;;;;0.33;0.27;;;15.40;99.90;;;;;;5085243;28;20203;-85
2021/04/30 11:41:05;;;;;;;0.40;0.40;;;15.40;99.90;;;;;;5084960;28;20250;-84
2021/04/30 11:43:31;;;;;;;0.20;0.20;;;15.70;99.90;;;;;;5085599;28;20521;-84
2021/04/30 11:45:57;;;;;;;1.03;0.70;;;14.60;99.90;;;;;;5073911;28;20612;-84
2021/04/30 11:48:28;;;;;;;0.63;0.63;;;15.30;99.90;;;;;;5073423;28;20176;-84
2021/04/30 11:51:04;;;;;;;0.30;0.30;;;15.80;99.90;;;;;;5080677;28;20209;-85
2021/04/30 11:53:30;;;;;;;0.50;0.50;;;16.10;99.90;;;;;;5074693;28;20183;-86
2021/04/30 11:55:57;;;;;;;1.07;0.83;;;16.10;99.90;;;;;;5070274;28;20181;-83
2021/04/30 11:58:41;;;;;;;0.33;0.33;;;16.10;99.90;;;;;;5083707;28;20516;-88
2021/04/30 12:01:10;;;;;;;0.63;0.63;;;16.60;99.90;;;;;;5084008;28;20629;-83
2021/04/30 12:03:54;;;;;;;0.60;0.60;;;16.70;99.90;;;;;;5078490;28;20192;-84
2021/04/30 12:06:24;;;;;;;0.30;0.30;;;16.90;99.90;;;;;;5073396;28;20180;-83
2021/04/30 12:08:53;;;;;;;0.53;0.53;;;17.00;99.90;;;;;;5087356;28;20209;-83
2021/04/30 12:11:29;;;;;;;0.40;0.40;;;17.00;99.90;;;;;;5065096;28;20708;-83
2021/04/30 12:13:57;;;;;;;0.33;0.33;;;16.90;99.90;;;;;;5062229;28;20199;-82
2021/04/30 12:16:23;;;;;;;0.20;0.20;;;17.00;99.90;;;;;;5081897;28;20252;-82
2021/04/30 12:18:50;;;;;;;0.67;0.67;;;17.00;99.90;;;;;;5062045;28;20205;-83
2021/04/30 12:21:33;;;;;;;0.60;0.60;;;16.50;99.90;;;;;;5062223;28;20562;-83
2021/04/30 12:24:00;;;;;;;0.73;0.73;;;16.60;99.90;;;;;;5081973;28;20236;-82
2021/04/30 12:26:29;;;;;;;0.97;0.97;;;16.60;99.90;;;;;;5061585;28;20193;-83
2021/04/30 12:28:56;;;;;;;0.60;0.60;;;16.60;99.90;;;;;;5073141;28;20531;-83
2021/04/30 12:31:23;;;;;;;0.30;0.30;;;16.60;99.90;;;;;;5079963;28;20216;-83
2021/04/30 12:33:50;;;;;;;1.13;0.83;;;16.80;99.90;;;;;;5093283;28;20172;-82
2021/04/30 12:36:27;;;;;;;0.37;0.37;;;15.80;99.90;;;;;;5084084;28;20259;-84
2021/04/30 12:38:55;;;;;;;0.60;0.60;;;16.20;99.90;;;;;;5074878;28;20186;-83
2021/04/30 12:41:29;;;;;;;0.50;0.50;;;16.60;99.90;;;;;;5090535;28;20211;-83
2021/04/30 12:43:57;;;;;;;0.47;0.47;;;16.20;99.90;;;;;;5062956;28;20184;-83
2021/04/30 12:46:29;;;;;;;1.10;0.30;;;16.30;99.90;;;;;;5057673;28;20181;-84
2021/04/30 12:48:56;;;;;;;0.60;0.50;;;16.30;99.90;;;;;;5086264;28;20185;-83
2021/04/30 12:51:30;;;;;;;0.97;0.80;;;16.20;99.90;;;;;;5078637;28;20217;-84
2021/04/30 12:53:56;;;;;;;0.50;0.40;;;16.20;99.90;;;;;;5079372;28;20268;-87
2021/04/30 12:56:30;;;;;;;0.53;0.53;;;16.30;99.90;;;;;;5071690;28;20184;-85
2021/04/30 12:59:18;;;;;;;0.60;0.60;;;16.20;99.90;;;;;;5074513;28;20212;-82